createdAt,value
2022-09-17T00:01:41.300Z,0.70
2022-09-17T00:04:11.080Z,1.00
2022-09-17T00:06:39.395Z,1.10
2022-09-17T00:09:08.903Z,1.30
2022-09-17T00:11:40.638Z,1.33
2022-09-17T00:14:13.479Z,0.80
2022-09-17T00:16:43.930Z,1.17
2022-09-17T00:19:15.730Z,1.00
2022-09-17T00:21:44.393Z,1.10
2022-09-17T00:24:14.875Z,1.30
2022-09-17T00:26:44.740Z,1.33
2022-09-17T00:29:13.154Z,0.60
2022-09-17T00:31:41.804Z,0.90
2022-09-17T00:34:11.883Z,0.60
2022-09-17T00:36:41.336Z,1.07
2022-09-17T00:39:12.704Z,0.97
2022-09-17T00:41:41.185Z,0.60
2022-09-17T00:44:44.348Z,0.60
2022-09-17T00:47:17.203Z,1.30
2022-09-17T00:49:46.531Z,1.00
2022-09-17T00:52:17.650Z,1.23
2022-09-17T00:54:52.589Z,1.10
2022-09-17T00:57:21.056Z,0.93
2022-09-17T00:59:50.932Z,1.40
2022-09-17T01:02:21.176Z,0.80
2022-09-17T01:04:49.553Z,1.00
2022-09-17T01:07:33.326Z,1.03
2022-09-17T01:10:11.627Z,0.97
2022-09-17T01:12:57.917Z,1.03
2022-09-17T01:15:44.646Z,1.20
2022-09-17T01:18:31.039Z,1.07
2022-09-17T01:21:26.203Z,1.07
2022-09-17T01:24:24.155Z,1.30
2022-09-17T01:27:25.328Z,1.23
2022-09-17T01:30:27.087Z,1.30
2022-09-17T01:33:05.202Z,1.60
2022-09-17T01:35:39.027Z,1.77
2022-09-17T01:38:14.463Z,2.07
2022-09-17T01:40:50.981Z,2.53
2022-09-17T01:43:24.465Z,1.57
2022-09-17T01:45:58.791Z,1.83
2022-09-17T01:48:30.787Z,1.40
2022-09-17T01:51:05.988Z,1.60
2022-09-17T01:53:40.964Z,1.73
2022-09-17T01:56:11.886Z,1.50
2022-09-17T01:58:44.874Z,1.53
2022-09-17T02:01:18.372Z,1.77
2022-09-17T02:03:53.558Z,1.70
2022-09-17T02:06:27.227Z,1.97
2022-09-17T02:08:59.408Z,1.90
2022-09-17T02:11:27.795Z,1.40
2022-09-17T02:14:00.262Z,1.03
2022-09-17T02:16:33.642Z,1.63
2022-09-17T02:19:06.991Z,1.67
2022-09-17T02:21:42.125Z,1.40
2022-09-17T02:24:18.472Z,0.90
2022-09-17T02:26:52.171Z,1.17
2022-09-17T02:29:27.787Z,1.57
2022-09-17T02:31:57.408Z,1.23
2022-09-17T02:34:27.575Z,1.20
2022-09-17T02:36:56.358Z,0.90
2022-09-17T02:39:24.636Z,1.10
2022-09-17T02:41:57.792Z,0.93
2022-09-17T02:44:33.974Z,1.10
2022-09-17T02:47:30.206Z,1.57
2022-09-17T02:50:23.432Z,1.30
2022-09-17T02:53:05.788Z,1.13
2022-09-17T02:55:42.360Z,1.20
2022-09-17T02:58:22.569Z,0.93
2022-09-17T03:00:51.193Z,1.30
2022-09-17T03:03:29.428Z,1.20
2022-09-17T03:05:58.241Z,0.80
2022-09-17T03:08:30.352Z,0.90
2022-09-17T03:10:58.607Z,1.43
2022-09-17T03:13:27.074Z,1.10
2022-09-17T03:15:55.515Z,1.13
2022-09-17T03:18:25.557Z,1.10
2022-09-17T03:20:53.778Z,1.53
2022-09-17T03:23:22.042Z,0.90
2022-09-17T03:25:50.636Z,1.30
2022-09-17T03:28:19.218Z,1.20
2022-09-17T03:30:48.205Z,1.10
2022-09-17T03:33:16.542Z,1.50
2022-09-17T03:35:46.532Z,1.37
2022-09-17T03:38:15.122Z,1.43
2022-09-17T03:40:43.505Z,1.63
2022-09-17T03:43:12.261Z,1.50
2022-09-17T03:45:40.442Z,1.50
2022-09-17T03:48:08.656Z,1.57
2022-09-17T03:50:37.073Z,1.30
2022-09-17T03:53:06.687Z,1.67
2022-09-17T03:55:34.984Z,1.73
2022-09-17T03:58:03.237Z,1.47
2022-09-17T04:00:32.066Z,1.87
2022-09-17T04:03:00.458Z,2.07
2022-09-17T04:05:28.736Z,1.57
2022-09-17T04:07:57.072Z,1.63
2022-09-17T04:10:26.772Z,1.60
2022-09-17T04:12:54.998Z,1.70
2022-09-17T04:15:23.318Z,1.70
2022-09-17T04:17:51.594Z,1.97
2022-09-17T04:20:19.989Z,1.90
2022-09-17T04:22:48.209Z,1.70
2022-09-17T04:25:16.616Z,2.27
2022-09-17T04:27:47.677Z,1.70
2022-09-17T04:30:16.870Z,2.00
2022-09-17T04:32:46.392Z,1.67
2022-09-17T04:35:14.702Z,2.30
2022-09-17T04:37:42.933Z,1.90
2022-09-17T04:40:12.070Z,1.97
2022-09-17T04:42:40.381Z,2.27
2022-09-17T04:45:10.897Z,1.40
2022-09-17T04:47:40.432Z,1.77
2022-09-17T04:50:09.308Z,1.80
2022-09-17T04:52:37.593Z,2.20
2022-09-17T04:55:06.689Z,1.97
2022-09-17T04:57:34.959Z,1.90
2022-09-17T05:00:03.471Z,2.20
2022-09-17T05:02:33.249Z,2.30
2022-09-17T05:05:01.638Z,2.40
2022-09-17T05:07:29.994Z,2.07
2022-09-17T05:09:58.190Z,1.90
2022-09-17T05:12:29.222Z,1.73
2022-09-17T05:14:59.570Z,1.20
2022-09-17T05:17:27.878Z,1.50
2022-09-17T05:19:57.633Z,1.13
2022-09-17T05:22:25.926Z,1.00
2022-09-17T05:24:54.135Z,1.20
2022-09-17T05:27:22.500Z,1.17
2022-09-17T05:29:50.956Z,1.10
2022-09-17T05:32:19.349Z,1.50
2022-09-17T05:34:47.654Z,1.30
2022-09-17T05:37:17.262Z,1.30
2022-09-17T05:39:45.757Z,1.70
2022-09-17T05:42:14.038Z,0.90
2022-09-17T05:44:42.257Z,0.70
2022-09-17T05:47:10.997Z,1.10
2022-09-17T05:49:39.197Z,1.57
2022-09-17T05:52:09.873Z,0.80
2022-09-17T05:54:39.528Z,1.00
2022-09-17T05:57:07.833Z,1.07
2022-09-17T05:59:36.312Z,1.23
2022-09-17T06:02:05.341Z,0.90
2022-09-17T06:04:35.080Z,1.13
2022-09-17T06:07:06.107Z,1.30
2022-09-17T06:09:36.253Z,1.10
2022-09-17T06:12:06.954Z,1.00
2022-09-17T06:14:35.259Z,1.20
2022-09-17T06:17:03.641Z,0.77
2022-09-17T06:19:31.857Z,1.10
2022-09-17T06:22:00.117Z,0.90
2022-09-17T06:24:28.494Z,1.20
2022-09-17T06:26:56.782Z,1.20
2022-09-17T06:29:27.724Z,1.20
2022-09-17T06:31:56.006Z,1.13
2022-09-17T06:34:24.395Z,1.57
2022-09-17T06:36:52.679Z,1.80
2022-09-17T06:39:21.209Z,1.67
2022-09-17T06:41:49.417Z,1.03
2022-09-17T06:44:17.792Z,1.60
2022-09-17T06:46:51.261Z,1.27
2022-09-17T06:49:19.587Z,1.20
2022-09-17T06:51:47.917Z,1.13
2022-09-17T06:54:18.582Z,1.17
2022-09-17T06:56:47.892Z,1.10
2022-09-17T06:59:16.425Z,1.27
2022-09-17T07:01:44.874Z,1.20
2022-09-17T07:04:14.746Z,1.10
2022-09-17T07:06:44.775Z,0.90
2022-09-17T07:09:13.649Z,0.93
2022-09-17T07:11:41.940Z,1.20
2022-09-17T07:14:10.176Z,1.33
2022-09-17T07:16:38.617Z,1.33
2022-09-17T07:19:08.291Z,1.50
2022-09-17T07:21:38.732Z,1.30
2022-09-17T07:24:07.417Z,1.67
2022-09-17T07:26:35.648Z,1.70
2022-09-17T07:29:03.881Z,1.50
2022-09-17T07:31:32.402Z,1.20
2022-09-17T07:34:01.757Z,1.30
2022-09-17T07:36:30.123Z,1.20
2022-09-17T07:38:59.739Z,1.47
2022-09-17T07:41:28.027Z,1.33
2022-09-17T07:43:56.417Z,1.10
2022-09-17T07:46:24.685Z,1.00
2022-09-17T07:48:52.982Z,0.80
2022-09-17T07:51:23.267Z,0.80
2022-09-17T07:53:52.891Z,0.77
2022-09-17T07:56:23.292Z,0.70
2022-09-17T07:58:52.019Z,0.70
2022-09-17T08:01:22.748Z,1.60
2022-09-17T08:03:53.241Z,0.67
2022-09-17T08:06:23.333Z,0.80
2022-09-17T08:08:51.611Z,0.70
2022-09-17T08:11:44.708Z,0.80
2022-09-17T08:14:12.730Z,0.80
2022-09-17T08:16:41.155Z,0.60
2022-09-17T08:19:11.037Z,0.97
2022-09-17T08:21:39.681Z,0.80
2022-09-17T08:24:08.256Z,0.80
2022-09-17T08:26:38.416Z,0.77
2022-09-17T08:29:07.448Z,1.30
2022-09-17T08:31:36.030Z,0.80
2022-09-17T08:34:08.757Z,0.87
2022-09-17T08:36:37.376Z,1.13
2022-09-17T08:39:05.829Z,0.80
2022-09-17T08:41:51.213Z,0.70
2022-09-17T08:44:26.089Z,1.27
2022-09-17T08:47:00.376Z,1.03
2022-09-17T08:49:36.208Z,0.93
2022-09-17T08:52:32.609Z,0.63
2022-09-17T08:55:11.314Z,1.03
2022-09-17T08:57:47.927Z,1.00
2022-09-17T09:00:18.881Z,0.70
2022-09-17T09:03:04.191Z,0.80
2022-09-17T09:05:39.682Z,0.63
2022-09-17T09:08:15.926Z,0.80
2022-09-17T09:10:49.003Z,0.93
2022-09-17T09:13:23.063Z,1.17
2022-09-17T09:15:56.476Z,1.67
2022-09-17T09:18:28.318Z,1.63
2022-09-17T09:21:09.092Z,1.63
2022-09-17T09:23:45.568Z,0.87
2022-09-17T09:26:21.355Z,1.80
2022-09-17T09:29:05.803Z,1.03
2022-09-17T09:31:55.463Z,1.00
2022-09-17T09:34:24.976Z,1.07
2022-09-17T09:36:53.413Z,0.90
2022-09-17T09:39:25.725Z,1.07
2022-09-17T09:42:00.349Z,0.70
2022-09-17T09:44:30.080Z,0.70
2022-09-17T09:47:20.554Z,1.33
2022-09-17T09:50:04.289Z,0.60
2022-09-17T09:52:44.294Z,0.70
2022-09-17T09:55:29.685Z,0.60
2022-09-17T09:58:04.691Z,0.80
2022-09-17T10:00:38.379Z,0.60
2022-09-17T10:03:14.487Z,0.87
2022-09-17T10:05:54.528Z,0.50
2022-09-17T10:08:23.191Z,0.60
2022-09-17T10:11:01.001Z,0.60
2022-09-17T10:13:31.290Z,0.63
2022-09-17T10:16:17.914Z,0.60
2022-09-17T10:18:46.858Z,0.60
2022-09-17T10:21:21.384Z,1.00
2022-09-17T10:23:52.422Z,0.70
2022-09-17T10:26:27.171Z,0.77
2022-09-17T10:28:57.337Z,0.80
2022-09-17T10:31:28.361Z,0.87
2022-09-17T10:34:02.730Z,0.90
2022-09-17T10:36:41.048Z,0.90
2022-09-17T10:39:21.610Z,0.80
2022-09-17T10:41:55.722Z,1.00
2022-09-17T10:44:25.672Z,0.93
2022-09-17T10:46:56.061Z,0.93
2022-09-17T10:49:43.878Z,0.80
2022-09-17T10:52:19.406Z,1.10
2022-09-17T10:55:13.632Z,0.70
2022-09-17T10:58:04.240Z,1.03
2022-09-17T11:00:45.255Z,1.17
2022-09-17T11:03:46.669Z,0.83
2022-09-17T11:06:50.412Z,0.80
2022-09-17T11:09:29.410Z,0.73
2022-09-17T11:12:16.606Z,0.80
2022-09-17T11:14:52.866Z,1.03
2022-09-17T11:17:36.383Z,1.57
2022-09-17T11:20:13.619Z,1.57
2022-09-17T11:22:52.110Z,1.00
2022-09-17T11:25:37.513Z,1.00
2022-09-17T11:28:19.791Z,1.03
2022-09-17T11:31:00.697Z,1.47
2022-09-17T11:33:43.681Z,1.67
2022-09-17T11:36:18.957Z,1.70
2022-09-17T11:38:51.338Z,1.23
2022-09-17T11:41:23.328Z,1.23
2022-09-17T11:44:01.059Z,1.60
2022-09-17T11:46:34.677Z,1.00
2022-09-17T11:49:06.436Z,1.20
2022-09-17T11:51:39.480Z,1.23
2022-09-17T11:54:16.897Z,1.50
2022-09-17T11:56:46.846Z,1.87
2022-09-17T11:59:21.376Z,1.50
2022-09-17T12:01:54.000Z,1.43
2022-09-17T12:04:40.701Z,1.90
2022-09-17T12:07:23.159Z,1.20
2022-09-17T12:09:56.466Z,1.10
2022-09-17T12:12:48.487Z,1.10
2022-09-17T12:15:21.642Z,1.03
2022-09-17T12:18:20.663Z,1.53
2022-09-17T12:20:50.744Z,1.40
2022-09-17T12:23:28.229Z,2.80
2022-09-17T12:26:07.446Z,1.47
2022-09-17T12:28:43.386Z,1.73
2022-09-17T12:31:19.038Z,1.50
2022-09-17T12:33:51.338Z,1.70
2022-09-17T12:36:32.097Z,1.77
2022-09-17T12:39:36.959Z,1.70
2022-09-17T12:42:15.467Z,2.00
2022-09-17T12:45:18.210Z,1.43
2022-09-17T12:48:12.663Z,2.00
2022-09-17T12:50:52.776Z,1.60
2022-09-17T12:53:28.941Z,1.40
2022-09-17T12:56:25.252Z,2.03
2022-09-17T12:59:08.711Z,1.37
2022-09-17T13:01:45.289Z,1.23
2022-09-17T13:04:38.343Z,1.27
2022-09-17T13:07:38.182Z,0.87
2022-09-17T13:10:40.283Z,0.67
2022-09-17T13:13:31.734Z,1.30
2022-09-17T13:16:13.334Z,0.87
2022-09-17T13:19:14.911Z,0.77
2022-09-17T13:21:50.318Z,1.20
2022-09-17T13:24:21.630Z,1.10
2022-09-17T13:26:50.423Z,1.07
2022-09-17T13:29:52.056Z,0.90
2022-09-17T13:32:52.950Z,1.10
2022-09-17T13:35:52.679Z,0.60
2022-09-17T13:38:24.376Z,0.70
2022-09-17T13:40:54.552Z,0.80
2022-09-17T13:43:28.093Z,1.00
2022-09-17T13:46:24.498Z,1.40
2022-09-17T13:48:59.567Z,0.97
2022-09-17T13:51:50.923Z,1.23
2022-09-17T13:54:22.170Z,1.00
2022-09-17T13:57:08.678Z,1.03
2022-09-17T13:59:38.331Z,1.10
2022-09-17T14:02:36.470Z,1.30
2022-09-17T14:05:33.611Z,0.87
2022-09-17T14:08:27.875Z,1.40
2022-09-17T14:10:58.345Z,0.83
2022-09-17T14:13:30.236Z,0.70
2022-09-17T14:16:02.880Z,0.80
2022-09-17T14:18:43.338Z,0.57
2022-09-17T14:21:22.158Z,0.77
2022-09-17T14:23:56.062Z,0.53
2022-09-17T14:26:36.884Z,0.50
2022-09-17T14:29:14.015Z,0.63
2022-09-17T14:31:42.908Z,0.60
2022-09-17T14:34:23.109Z,0.40
2022-09-17T14:36:55.234Z,0.70
2022-09-17T14:39:26.472Z,1.27
2022-09-17T14:41:56.411Z,0.70
2022-09-17T14:44:32.944Z,0.90
2022-09-17T14:47:04.392Z,1.33
2022-09-17T14:49:37.102Z,0.80
2022-09-17T14:52:25.333Z,1.40
2022-09-17T14:55:17.779Z,0.90
2022-09-17T14:57:47.960Z,0.80
2022-09-17T15:00:23.049Z,0.93
2022-09-17T15:02:54.365Z,0.73
2022-09-17T15:05:27.195Z,0.93
2022-09-17T15:08:16.698Z,0.70
2022-09-17T15:10:50.679Z,0.67
2022-09-17T15:13:22.602Z,1.10
2022-09-17T15:16:23.263Z,0.90
2022-09-17T15:18:54.504Z,0.80
2022-09-17T15:21:30.956Z,0.70
2022-09-17T15:24:09.085Z,0.88
2022-09-17T15:26:42.880Z,0.65
2022-09-17T15:29:13.307Z,1.05
2022-09-17T15:31:42.290Z,0.90
2022-09-17T15:34:12.735Z,1.00
2022-09-17T15:36:41.001Z,0.73
2022-09-17T15:39:34.492Z,0.85
2022-09-17T15:42:02.769Z,0.90
2022-09-17T15:44:32.044Z,1.20
2022-09-17T15:47:52.299Z,1.25
2022-09-17T15:50:22.770Z,1.27
2022-09-17T15:52:52.156Z,1.08
2022-09-17T15:55:36.805Z,1.20
2022-09-17T15:58:07.033Z,1.20
2022-09-17T16:00:35.517Z,1.30
2022-09-17T16:04:02.029Z,1.10
2022-09-17T16:06:39.633Z,1.30
2022-09-17T16:09:39.295Z,1.13
2022-09-17T16:12:11.987Z,1.40
2022-09-17T16:14:43.580Z,1.40
2022-09-17T16:17:28.158Z,1.40
2022-09-17T16:19:57.210Z,1.23
2022-09-17T16:22:26.409Z,0.90
2022-09-17T16:24:54.791Z,0.97
2022-09-17T16:27:28.232Z,1.20
2022-09-17T16:30:03.732Z,1.03
2022-09-17T16:32:32.067Z,1.03
2022-09-17T16:35:00.695Z,1.00
2022-09-17T16:37:29.233Z,1.30
2022-09-17T16:39:57.546Z,1.17
2022-09-17T16:42:27.308Z,1.57
2022-09-17T16:44:55.682Z,1.17
2022-09-17T16:47:24.122Z,1.33
2022-09-17T16:49:52.361Z,1.30
2022-09-17T16:52:20.664Z,1.30
2022-09-17T16:54:48.961Z,1.13
2022-09-17T16:57:17.361Z,1.30
2022-09-17T16:59:46.982Z,1.17
2022-09-17T17:02:15.352Z,1.40
2022-09-17T17:04:43.673Z,1.37
2022-09-17T17:07:11.956Z,1.77
2022-09-17T17:09:40.262Z,1.80
2022-09-17T17:12:09.295Z,1.63
2022-09-17T17:14:39.886Z,1.50
2022-09-17T17:17:09.570Z,1.27
2022-09-17T17:19:37.918Z,1.40
2022-09-17T17:22:06.931Z,1.47
2022-09-17T17:24:35.230Z,0.90
2022-09-17T17:27:03.941Z,0.87
2022-09-17T17:29:32.215Z,1.10
2022-09-17T17:32:03.184Z,0.70
2022-09-17T17:34:33.333Z,0.70
2022-09-17T17:37:01.931Z,0.80
2022-09-17T17:39:30.267Z,1.13
2022-09-17T17:41:59.109Z,1.10
2022-09-17T17:44:27.447Z,1.30
2022-09-17T17:46:55.972Z,1.27
2022-09-17T17:49:24.374Z,1.20
2022-09-17T17:51:54.508Z,1.20
2022-09-17T17:54:22.884Z,0.93
2022-09-17T17:56:51.351Z,1.20
2022-09-17T17:59:19.945Z,1.20
2022-09-17T18:01:48.292Z,1.00
2022-09-17T18:04:16.896Z,1.30
2022-09-17T18:06:48.079Z,1.40
2022-09-17T18:09:17.920Z,1.00
2022-09-17T18:11:46.300Z,1.00
2022-09-17T18:14:15.040Z,1.20
2022-09-17T18:16:43.278Z,1.30
2022-09-17T18:19:12.330Z,1.40
2022-09-17T18:21:40.907Z,1.33
2022-09-17T18:24:09.161Z,1.20
2022-09-17T18:26:38.824Z,1.40
2022-09-17T18:29:08.315Z,1.60
2022-09-17T18:31:38.019Z,1.50
2022-09-17T18:34:10.655Z,6.23
2022-09-17T18:36:40.591Z,2.20
2022-09-17T18:42:03.139Z,1.90
2022-09-17T18:44:31.390Z,1.40
2022-09-17T18:46:59.762Z,1.23
2022-09-17T18:49:28.178Z,1.50
2022-09-17T18:51:56.597Z,2.20
2022-09-17T18:54:25.084Z,2.40
2022-09-17T18:56:53.434Z,2.10
2022-09-17T18:59:23.115Z,2.73
2022-09-17T19:01:51.484Z,2.90
2022-09-17T19:04:19.891Z,2.47
2022-09-17T19:06:48.167Z,2.43
2022-09-17T19:09:16.462Z,1.90
2022-09-17T19:11:44.722Z,2.33
2022-09-17T19:14:13.105Z,2.70
2022-09-17T19:16:42.998Z,2.10
2022-09-17T19:19:11.620Z,2.20
2022-09-17T19:21:39.881Z,1.90
2022-09-17T19:24:08.622Z,2.50
2022-09-17T19:26:37.079Z,2.10
2022-09-17T19:29:06.371Z,2.37
2022-09-17T19:31:34.865Z,3.07
2022-09-17T19:34:04.960Z,3.17
2022-09-17T19:36:33.326Z,3.43
2022-09-17T19:39:01.600Z,2.50
2022-09-17T19:41:32.031Z,2.63
2022-09-17T19:44:00.345Z,1.97
2022-09-17T19:46:29.867Z,2.37
2022-09-17T19:48:58.971Z,1.60
2022-09-17T19:51:29.873Z,1.93
2022-09-17T19:53:58.665Z,2.17
2022-09-17T19:56:28.519Z,1.97
2022-09-17T19:58:57.720Z,2.30
2022-09-17T20:01:26.470Z,2.30
2022-09-17T20:03:54.749Z,2.53
2022-09-17T20:06:23.993Z,1.93
2022-09-17T20:08:55.343Z,2.73
2022-09-17T20:11:25.599Z,2.10
2022-09-17T20:13:58.451Z,2.17
2022-09-17T20:16:27.340Z,1.60
2022-09-17T20:18:56.067Z,2.27
2022-09-17T20:21:27.871Z,1.40
2022-09-17T20:23:58.010Z,1.43
2022-09-17T20:26:27.411Z,1.60
2022-09-17T20:28:56.469Z,1.43
2022-09-17T20:31:26.747Z,1.60
2022-09-17T20:33:56.483Z,1.67
2022-09-17T20:36:27.531Z,1.70
2022-09-17T20:39:16.811Z,1.87
2022-09-17T20:41:45.702Z,1.30
2022-09-17T20:44:13.990Z,1.70
2022-09-17T20:46:42.360Z,1.47
2022-09-17T20:49:10.773Z,1.50
2022-09-17T20:51:39.100Z,1.93
2022-09-17T20:54:09.555Z,2.40
2022-09-17T20:56:38.080Z,2.77
2022-09-17T20:59:14.378Z,1.80
2022-09-17T21:01:45.040Z,1.90
2022-09-17T21:04:16.180Z,1.10
2022-09-17T21:06:45.704Z,1.60
2022-09-17T21:09:16.855Z,1.47
2022-09-17T21:11:46.887Z,1.27
2022-09-17T21:14:17.469Z,1.47
2022-09-17T21:16:46.509Z,1.23
2022-09-17T21:19:16.526Z,1.50
2022-09-17T21:21:45.299Z,1.60
2022-09-17T21:24:14.960Z,1.20
2022-09-17T21:26:45.079Z,1.27
2022-09-17T21:29:13.413Z,1.00
2022-09-17T21:31:41.991Z,1.07
2022-09-17T21:34:12.910Z,1.10
2022-09-17T21:36:44.443Z,1.10
2022-09-17T21:39:15.756Z,1.10
2022-09-17T21:41:44.822Z,1.83
2022-09-17T21:44:13.611Z,1.40
2022-09-17T21:46:43.292Z,1.60
2022-09-17T21:49:13.419Z,1.20
2022-09-17T21:51:43.159Z,1.83
2022-09-17T21:54:13.775Z,1.53
2022-09-17T21:56:43.789Z,1.40
2022-09-17T21:59:14.534Z,1.20
2022-09-17T22:01:46.592Z,1.33
2022-09-17T22:04:17.308Z,1.30
2022-09-17T22:06:46.679Z,1.60
2022-09-17T22:09:17.748Z,1.33
2022-09-17T22:11:47.702Z,1.20
2022-09-17T22:14:19.458Z,1.00
2022-09-17T22:16:50.653Z,1.10
2022-09-17T22:19:20.410Z,1.40
2022-09-17T22:21:51.413Z,1.10
2022-09-17T22:24:21.413Z,1.10
2022-09-17T22:26:56.970Z,1.10
2022-09-17T22:29:28.197Z,1.43
2022-09-17T22:31:57.281Z,1.30
2022-09-17T22:34:26.577Z,1.50
2022-09-17T22:36:55.215Z,1.93
2022-09-17T22:39:24.374Z,1.40
2022-09-17T22:41:54.268Z,1.80
2022-09-17T22:44:22.677Z,1.90
2022-09-17T22:46:52.648Z,1.30
2022-09-17T22:49:21.422Z,1.30
2022-09-17T22:51:49.929Z,1.40
2022-09-17T22:54:19.791Z,1.20
2022-09-17T22:56:48.912Z,1.47
2022-09-17T22:59:19.385Z,1.40
2022-09-17T23:01:47.886Z,1.43
2022-09-17T23:04:16.237Z,1.33
2022-09-17T23:06:44.521Z,1.50
2022-09-17T23:09:13.774Z,1.70
2022-09-17T23:11:44.498Z,1.47
2022-09-17T23:14:16.953Z,1.60
2022-09-17T23:16:48.437Z,1.10
2022-09-17T23:19:18.883Z,1.20
2022-09-17T23:21:47.747Z,1.90
2022-09-17T23:24:20.289Z,1.40
2022-09-17T23:26:48.960Z,1.73
2022-09-17T23:29:17.736Z,2.07
2022-09-17T23:31:47.529Z,1.43
2022-09-17T23:34:15.872Z,2.13
2022-09-17T23:36:44.829Z,1.93
2022-09-17T23:39:13.421Z,2.63
2022-09-17T23:41:45.552Z,2.93
2022-09-17T23:44:16.086Z,2.93
2022-09-17T23:46:48.463Z,2.80
2022-09-17T23:49:18.159Z,3.17
2022-09-17T23:51:46.806Z,3.10
2022-09-17T23:54:15.458Z,2.67
2022-09-17T23:56:43.830Z,2.90
2022-09-17T23:59:12.957Z,3.00
